createdAt,value
2018-05-16T00:02:41.385Z,9.73
2018-05-16T00:05:44.605Z,10.27
2018-05-16T00:08:47.058Z,11.37
2018-05-16T00:11:50.274Z,9.53
2018-05-16T00:14:52.733Z,9.50
2018-05-16T00:17:55.962Z,9.50
2018-05-16T00:20:58.422Z,9.90
2018-05-16T00:24:00.894Z,9.47
2018-05-16T00:27:03.338Z,8.50
2018-05-16T00:30:05.802Z,9.87
2018-05-16T00:33:08.265Z,9.83
2018-05-16T00:36:10.718Z,10.63
2018-05-16T00:39:13.177Z,11.10
2018-05-16T00:42:15.629Z,10.47
2018-05-16T00:45:18.870Z,10.80
2018-05-16T00:48:21.333Z,10.50
2018-05-16T00:51:33.852Z,10.03
2018-05-16T00:54:36.274Z,10.70
2018-05-16T00:57:38.745Z,10.97
2018-05-16T01:00:41.182Z,11.07
2018-05-16T01:03:43.651Z,12.27
2018-05-16T01:06:46.106Z,12.87
2018-05-16T01:09:49.333Z,10.67
2018-05-16T01:12:51.798Z,11.67
2018-05-16T01:15:54.257Z,11.93
2018-05-16T01:18:57.481Z,11.27
2018-05-16T01:21:59.970Z,11.00
2018-05-16T01:25:02.434Z,11.20
2018-05-16T01:28:04.904Z,13.37
2018-05-16T01:31:07.357Z,16.40
2018-05-16T01:34:10.585Z,17.90
2018-05-16T01:37:13.039Z,18.80
2018-05-16T01:40:15.498Z,14.63
2018-05-16T01:43:18.734Z,12.20
2018-05-16T01:46:21.177Z,11.53
2018-05-16T01:49:24.412Z,11.67
2018-05-16T01:52:26.869Z,11.07
2018-05-16T01:55:29.329Z,10.90
2018-05-16T01:58:31.790Z,11.73
2018-05-16T02:01:35.014Z,11.63
2018-05-16T02:04:37.476Z,10.33
2018-05-16T02:07:40.784Z,11.27
2018-05-16T02:10:43.245Z,10.50
2018-05-16T02:13:46.491Z,10.47
2018-05-16T02:16:48.939Z,14.70
2018-05-16T02:19:51.401Z,11.13
2018-05-16T02:22:53.857Z,10.87
2018-05-16T02:25:57.086Z,12.63
2018-05-16T02:28:59.562Z,12.40
2018-05-16T02:32:02.015Z,14.23
2018-05-16T02:35:05.249Z,15.70
2018-05-16T02:38:07.709Z,17.07
2018-05-16T02:41:10.177Z,16.17
2018-05-16T02:44:12.641Z,16.30
2018-05-16T02:47:15.854Z,18.23
2018-05-16T02:50:18.318Z,19.07
2018-05-16T02:53:21.543Z,21.17
2018-05-16T02:56:24.019Z,21.27
2018-05-16T02:59:26.478Z,21.83
2018-05-16T03:02:28.945Z,22.37
2018-05-16T03:05:31.414Z,21.87
2018-05-16T03:08:34.647Z,21.80
2018-05-16T03:11:37.105Z,24.10
2018-05-16T03:14:39.565Z,23.67
2018-05-16T03:17:42.786Z,23.47
2018-05-16T03:20:45.258Z,21.93
2018-05-16T03:23:47.700Z,22.43
2018-05-16T03:26:50.938Z,21.20
2018-05-16T03:29:53.406Z,22.53
2018-05-16T03:32:55.853Z,22.43
2018-05-16T03:35:59.082Z,21.77
2018-05-16T03:39:01.538Z,21.83
2018-05-16T03:42:04.763Z,23.63
2018-05-16T03:45:07.225Z,23.50
2018-05-16T03:48:09.677Z,22.03
2018-05-16T03:51:12.919Z,23.83
2018-05-16T03:54:15.370Z,21.53
2018-05-16T03:57:29.767Z,22.63
2018-05-16T04:00:44.084Z,23.13
2018-05-16T04:03:58.493Z,23.77
2018-05-16T04:07:00.962Z,24.13
2018-05-16T04:10:03.418Z,25.40
2018-05-16T04:13:05.883Z,26.40
2018-05-16T04:16:08.355Z,24.10
2018-05-16T04:19:10.847Z,24.37
2018-05-16T04:22:13.307Z,24.20
2018-05-16T04:25:15.750Z,23.83
2018-05-16T04:28:18.977Z,24.70
2018-05-16T04:31:21.441Z,25.40
2018-05-16T04:34:23.897Z,26.87
2018-05-16T04:37:27.129Z,26.00
2018-05-16T04:40:29.602Z,26.40
2018-05-16T04:43:32.053Z,24.97
2018-05-16T04:46:35.282Z,25.20
2018-05-16T04:49:37.737Z,25.67
2018-05-16T04:52:40.205Z,25.33
2018-05-16T04:55:42.666Z,25.10
2018-05-16T04:58:45.126Z,24.23
2018-05-16T05:01:47.586Z,22.20
2018-05-16T05:04:50.041Z,22.40
2018-05-16T05:07:52.501Z,22.30
2018-05-16T05:10:54.957Z,20.97
2018-05-16T05:13:58.174Z,20.77
2018-05-16T05:17:00.646Z,19.97
2018-05-16T05:20:03.119Z,19.90
2018-05-16T05:23:06.327Z,20.53
2018-05-16T05:26:08.781Z,20.30
2018-05-16T05:29:11.230Z,20.73
2018-05-16T05:32:13.688Z,18.80
2018-05-16T05:35:16.142Z,18.10
2018-05-16T05:38:18.605Z,19.20
2018-05-16T05:41:21.078Z,20.27
2018-05-16T05:44:23.521Z,20.03
2018-05-16T05:47:26.762Z,20.73
2018-05-16T05:50:29.215Z,20.03
2018-05-16T05:53:32.437Z,21.47
2018-05-16T05:56:34.898Z,20.97
2018-05-16T05:59:37.374Z,20.77
2018-05-16T06:02:39.838Z,22.50
2018-05-16T06:05:42.290Z,21.90
2018-05-16T06:08:44.754Z,22.73
2018-05-16T06:11:47.217Z,21.30
2018-05-16T06:14:49.663Z,20.27
2018-05-16T06:17:52.136Z,20.47
2018-05-16T06:20:54.581Z,19.50
2018-05-16T06:23:57.817Z,19.07
2018-05-16T06:27:00.315Z,23.47
2018-05-16T06:30:02.750Z,21.10
2018-05-16T06:33:05.222Z,19.63
2018-05-16T06:36:08.433Z,18.57
2018-05-16T06:39:10.942Z,20.20
2018-05-16T06:42:13.370Z,20.37
2018-05-16T06:45:15.821Z,19.63
2018-05-16T06:48:18.282Z,21.43
2018-05-16T06:51:20.741Z,21.67
2018-05-16T06:54:23.201Z,21.20
2018-05-16T06:57:25.658Z,22.27
2018-05-16T07:00:28.166Z,21.47
2018-05-16T07:03:30.629Z,22.67
2018-05-16T07:06:33.087Z,22.37
2018-05-16T07:09:36.313Z,26.27
2018-05-16T07:12:38.791Z,22.77
2018-05-16T07:15:41.246Z,21.60
2018-05-16T07:18:56.330Z,23.00
2018-05-16T07:21:58.786Z,22.43
2018-05-16T07:25:01.245Z,22.03
2018-05-16T07:28:04.478Z,22.07
2018-05-16T07:31:06.927Z,20.40
2018-05-16T07:34:10.158Z,17.83
2018-05-16T07:37:12.609Z,17.10
2018-05-16T07:40:15.073Z,20.13
2018-05-16T07:43:18.299Z,16.50
2018-05-16T07:46:20.742Z,15.17
2018-05-16T07:49:23.978Z,14.17
2018-05-16T07:52:26.428Z,13.00
2018-05-16T07:55:28.889Z,13.57
2018-05-16T07:58:32.118Z,13.73
2018-05-16T08:01:34.590Z,13.13
2018-05-16T08:04:37.053Z,13.70
2018-05-16T08:07:39.506Z,14.17
2018-05-16T08:10:42.730Z,13.03
2018-05-16T08:13:45.202Z,14.17
2018-05-16T08:16:47.660Z,13.83
2018-05-16T08:19:50.893Z,13.07
2018-05-16T08:22:53.349Z,14.10
2018-05-16T08:25:55.809Z,12.43
2018-05-16T08:28:59.038Z,14.93
2018-05-16T08:32:01.527Z,15.03
2018-05-16T08:35:03.985Z,15.33
2018-05-16T08:38:06.446Z,15.90
2018-05-16T08:41:09.677Z,14.93
2018-05-16T08:44:12.139Z,14.30
2018-05-16T08:47:14.590Z,14.50
2018-05-16T08:50:17.809Z,13.87
2018-05-16T08:53:20.265Z,15.27
2018-05-16T08:56:22.729Z,14.00
2018-05-16T08:59:25.970Z,14.60
2018-05-16T09:02:28.434Z,15.03
2018-05-16T09:05:30.897Z,14.10
2018-05-16T09:08:33.341Z,14.83
2018-05-16T09:11:36.565Z,15.67
2018-05-16T09:15:03.956Z,17.30
2018-05-16T09:18:06.405Z,16.20
2018-05-16T09:21:08.866Z,17.03
2018-05-16T09:24:12.094Z,16.33
2018-05-16T09:27:14.554Z,16.90
2018-05-16T09:30:28.244Z,17.23
2018-05-16T09:33:32.194Z,17.07
2018-05-16T09:36:34.652Z,16.10
2018-05-16T09:39:37.867Z,17.37
2018-05-16T09:42:40.330Z,16.13
2018-05-16T09:45:42.842Z,17.47
2018-05-16T09:48:47.010Z,15.80
2018-05-16T09:51:49.486Z,16.97
2018-05-16T09:54:51.943Z,17.23
2018-05-16T09:58:00.546Z,17.03
2018-05-16T10:01:03.014Z,17.10
2018-05-16T10:04:12.165Z,18.27
2018-05-16T10:07:14.933Z,17.63
2018-05-16T10:10:17.401Z,18.07
2018-05-16T10:13:20.762Z,17.47
2018-05-16T10:16:24.011Z,17.33
2018-05-16T10:19:26.465Z,17.37
2018-05-16T10:22:28.922Z,17.03
2018-05-16T10:25:32.150Z,16.40
2018-05-16T10:28:34.622Z,17.80
2018-05-16T10:31:37.086Z,16.47
2018-05-16T10:34:39.625Z,16.97
2018-05-16T10:37:42.774Z,17.17
2018-05-16T10:40:45.234Z,18.17
2018-05-16T10:43:47.674Z,17.57
2018-05-16T10:46:50.137Z,18.10
2018-05-16T10:49:52.586Z,17.60
2018-05-16T10:52:55.054Z,18.43
2018-05-16T10:55:57.523Z,18.13
2018-05-16T10:58:59.961Z,16.93
2018-05-16T11:02:03.194Z,17.00
2018-05-16T11:05:05.642Z,14.83
2018-05-16T11:08:08.869Z,16.13
2018-05-16T11:11:11.329Z,16.50
2018-05-16T11:14:13.777Z,16.33
2018-05-16T11:17:16.235Z,15.70
2018-05-16T11:20:18.694Z,16.00
2018-05-16T11:23:21.162Z,16.53
2018-05-16T11:26:23.627Z,15.10
2018-05-16T11:29:26.123Z,16.13
2018-05-16T11:32:28.585Z,17.13
2018-05-16T11:35:31.038Z,15.10
2018-05-16T11:38:33.493Z,15.43
2018-05-16T11:41:36.722Z,14.93
2018-05-16T11:44:39.165Z,15.40
2018-05-16T11:47:42.406Z,15.10
2018-05-16T11:50:44.856Z,14.27
2018-05-16T11:53:47.314Z,13.80
2018-05-16T11:56:50.537Z,14.37
2018-05-16T11:59:52.990Z,13.33
2018-05-16T12:02:55.483Z,14.13
2018-05-16T12:05:57.898Z,14.47
2018-05-16T12:09:00.357Z,14.30
2018-05-16T12:12:02.823Z,14.77
2018-05-16T12:15:08.954Z,14.97
2018-05-16T12:18:11.424Z,16.03
2018-05-16T12:21:13.874Z,13.93
2018-05-16T12:24:16.338Z,12.73
2018-05-16T12:27:18.804Z,12.53
2018-05-16T12:30:21.254Z,13.17
2018-05-16T12:33:23.723Z,12.83
2018-05-16T12:36:26.952Z,14.13
2018-05-16T12:39:29.391Z,14.00
2018-05-16T12:42:32.611Z,14.40
2018-05-16T12:45:35.079Z,13.70
2018-05-16T12:52:20.078Z,13.40
2018-05-16T12:55:22.554Z,12.83
2018-05-16T12:58:25.034Z,12.00
2018-05-16T13:01:27.519Z,11.90
2018-05-16T13:04:30.715Z,11.80
2018-05-16T13:07:33.276Z,11.37
2018-05-16T13:10:35.765Z,10.93
2018-05-16T13:13:38.210Z,11.60
2018-05-16T13:16:41.430Z,11.53
2018-05-16T13:19:43.912Z,10.87
2018-05-16T13:22:46.366Z,9.83
2018-05-16T13:25:49.598Z,10.33
2018-05-16T13:28:52.065Z,10.07
2018-05-16T13:31:54.522Z,9.27
2018-05-16T13:34:56.982Z,7.70
2018-05-16T13:38:00.282Z,7.00
2018-05-16T13:41:03.516Z,7.73
2018-05-16T13:44:05.974Z,7.70
2018-05-16T13:47:08.414Z,9.10
2018-05-16T13:50:10.869Z,8.97
2018-05-16T13:53:13.324Z,9.70
2018-05-16T13:56:15.787Z,10.17
2018-05-16T13:59:18.241Z,10.03
2018-05-16T14:02:21.457Z,9.73
2018-05-16T14:05:23.919Z,9.80
2018-05-16T14:08:26.365Z,9.53
2018-05-16T14:11:28.829Z,9.80
2018-05-16T14:14:31.284Z,9.30
2018-05-16T14:17:33.732Z,9.43
2018-05-16T14:20:36.185Z,9.33
2018-05-16T14:23:39.414Z,9.07
2018-05-16T14:26:41.861Z,9.40
2018-05-16T14:29:45.086Z,9.30
2018-05-16T14:32:47.538Z,9.73
2018-05-16T14:35:50.782Z,10.20
2018-05-16T14:39:01.562Z,10.33
2018-05-16T14:42:04.016Z,10.03
2018-05-16T14:45:06.478Z,10.67
2018-05-16T14:48:08.943Z,10.40
2018-05-16T14:51:11.410Z,10.73
2018-05-16T14:54:14.633Z,10.90
2018-05-16T14:57:17.081Z,10.00
2018-05-16T15:00:20.310Z,10.20
2018-05-16T15:03:22.758Z,9.40
2018-05-16T15:06:43.989Z,10.27
2018-05-16T15:09:46.461Z,10.67
2018-05-16T15:12:48.918Z,11.30
2018-05-16T15:15:52.145Z,10.43
2018-05-16T15:19:14.298Z,10.03
2018-05-16T15:22:16.768Z,10.97
2018-05-16T15:25:19.231Z,10.47
2018-05-16T15:28:21.684Z,10.20
2018-05-16T15:31:28.661Z,10.63
2018-05-16T15:34:31.901Z,10.93
2018-05-16T15:37:34.357Z,11.63
2018-05-16T15:40:36.819Z,11.00
2018-05-16T15:43:39.270Z,10.97
2018-05-16T15:46:41.744Z,10.87
2018-05-16T15:49:44.181Z,12.47
2018-05-16T15:52:46.641Z,11.83
2018-05-16T15:55:49.114Z,12.53
2018-05-16T15:58:51.567Z,12.13
2018-05-16T16:01:54.793Z,13.07
2018-05-16T16:04:57.259Z,11.63
2018-05-16T16:07:59.790Z,12.77
2018-05-16T16:11:02.172Z,12.63
2018-05-16T16:14:04.766Z,13.67
2018-05-16T16:17:08.001Z,12.33
2018-05-16T16:20:10.464Z,13.27
2018-05-16T16:23:12.930Z,13.57
2018-05-16T16:26:15.390Z,13.40
2018-05-16T16:29:17.926Z,12.33
2018-05-16T16:32:20.393Z,14.60
2018-05-16T16:35:22.856Z,14.17
2018-05-16T16:38:25.313Z,13.73
2018-05-16T16:41:28.537Z,14.37
2018-05-16T16:44:30.985Z,14.67
2018-05-16T16:47:33.461Z,13.73
2018-05-16T16:50:36.701Z,14.50
2018-05-16T16:53:39.164Z,13.70
2018-05-16T16:56:41.636Z,13.40
2018-05-16T16:59:44.086Z,14.57
2018-05-16T17:02:47.329Z,14.83
2018-05-16T17:05:49.800Z,15.20
2018-05-16T17:08:52.250Z,15.67
2018-05-16T17:11:54.711Z,14.60
2018-05-16T17:15:05.128Z,15.27
2018-05-16T17:18:07.578Z,16.00
2018-05-16T17:21:10.026Z,16.10
2018-05-16T17:24:13.262Z,16.77
2018-05-16T17:27:15.705Z,17.53
2018-05-16T17:30:18.163Z,18.53
2018-05-16T17:33:20.610Z,19.40
2018-05-16T17:36:23.130Z,19.23
2018-05-16T17:39:26.360Z,19.37
2018-05-16T17:42:28.817Z,19.87
2018-05-16T17:45:31.270Z,21.70
2018-05-16T17:48:33.789Z,19.77
2018-05-16T17:51:36.249Z,20.80
2018-05-16T17:54:38.705Z,20.30
2018-05-16T17:57:41.925Z,21.10
2018-05-16T18:00:44.384Z,20.83
2018-05-16T18:03:47.610Z,22.13
2018-05-16T18:06:50.075Z,21.53
2018-05-16T18:09:52.542Z,21.13
2018-05-16T18:16:44.867Z,20.80
2018-05-16T18:19:48.353Z,20.40
2018-05-16T18:22:50.816Z,20.00
2018-05-16T18:25:53.257Z,20.63
2018-05-16T18:28:55.722Z,20.30
2018-05-16T18:31:58.942Z,20.80
2018-05-16T18:35:01.415Z,20.33
2018-05-16T18:38:03.882Z,19.73
2018-05-16T18:41:06.329Z,19.87
2018-05-16T18:44:09.562Z,20.77
2018-05-16T18:47:12.009Z,20.90
2018-05-16T18:50:15.254Z,21.17
2018-05-16T18:53:17.719Z,21.30
2018-05-16T18:56:20.170Z,20.97
2018-05-16T18:59:23.387Z,21.97
2018-05-16T19:02:25.833Z,21.40
2018-05-16T19:05:29.062Z,23.73
2018-05-16T19:08:31.523Z,23.17
2018-05-16T19:11:33.966Z,21.30
2018-05-16T19:14:37.196Z,22.33
2018-05-16T19:17:39.676Z,22.63
2018-05-16T19:20:42.125Z,22.20
2018-05-16T19:23:45.354Z,22.07
2018-05-16T19:26:47.802Z,22.20
2018-05-16T19:29:51.034Z,23.73
2018-05-16T19:32:53.494Z,26.20
2018-05-16T19:35:55.953Z,26.30
2018-05-16T19:38:58.425Z,26.83
2018-05-16T19:42:00.877Z,24.27
2018-05-16T19:45:03.330Z,25.23
2018-05-16T19:48:05.802Z,22.70
2018-05-16T19:51:08.253Z,22.40
2018-05-16T19:54:10.710Z,22.80
2018-05-16T19:57:13.938Z,23.03
2018-05-16T20:00:16.385Z,24.73
2018-05-16T20:03:18.920Z,23.27
2018-05-16T20:06:25.926Z,31.53
2018-05-16T20:09:29.321Z,24.07
2018-05-16T20:12:33.742Z,24.00
2018-05-16T20:15:36.202Z,25.47
2018-05-16T20:18:38.666Z,25.67
2018-05-16T20:21:41.126Z,25.67
2018-05-16T20:24:43.587Z,27.93
2018-05-16T20:27:46.042Z,25.47
2018-05-16T20:30:48.497Z,26.23
2018-05-16T20:33:50.962Z,24.60
2018-05-16T20:36:53.410Z,26.17
2018-05-16T20:39:55.911Z,26.97
2018-05-16T20:42:58.318Z,26.60
2018-05-16T20:46:00.773Z,25.50
2018-05-16T20:49:03.229Z,30.20
2018-05-16T20:52:05.681Z,24.33
2018-05-16T20:55:08.142Z,23.70
2018-05-16T20:58:10.592Z,23.23
2018-05-16T21:01:13.049Z,23.13
2018-05-16T21:04:15.506Z,24.23
2018-05-16T21:07:17.961Z,23.90
2018-05-16T21:10:20.430Z,25.30
2018-05-16T21:13:22.870Z,22.93
2018-05-16T21:16:25.343Z,23.50
2018-05-16T21:19:27.804Z,23.80
2018-05-16T21:22:30.249Z,24.37
2018-05-16T21:25:32.712Z,23.87
2018-05-16T21:28:35.266Z,25.10
2018-05-16T21:31:37.617Z,25.73
2018-05-16T21:34:40.095Z,24.33
2018-05-16T21:37:42.545Z,25.23
2018-05-16T21:40:45.005Z,23.63
2018-05-16T21:43:47.459Z,22.87
2018-05-16T21:46:50.677Z,22.67
2018-05-16T21:49:53.139Z,18.97
2018-05-16T21:52:55.585Z,17.60
2018-05-16T21:55:58.050Z,18.30
2018-05-16T21:59:00.514Z,17.87
2018-05-16T22:02:02.978Z,16.53
2018-05-16T22:05:05.434Z,16.20
2018-05-16T22:08:07.904Z,15.40
2018-05-16T22:11:10.353Z,16.50
2018-05-16T22:14:12.818Z,16.00
2018-05-16T22:17:15.273Z,15.60
2018-05-16T22:20:17.727Z,15.67
2018-05-16T22:23:20.174Z,15.03
2018-05-16T22:26:22.640Z,15.90
2018-05-16T22:29:25.086Z,14.40
2018-05-16T22:32:33.310Z,14.63
2018-05-16T22:35:41.572Z,14.00
2018-05-16T22:38:49.629Z,15.07
2018-05-16T22:41:57.888Z,12.97
2018-05-16T22:45:06.081Z,13.20
2018-05-16T22:48:09.301Z,13.17
2018-05-16T22:51:11.766Z,13.90
2018-05-16T22:54:14.219Z,12.60
2018-05-16T22:57:17.429Z,12.57
2018-05-16T23:00:23.365Z,13.17
2018-05-16T23:03:25.812Z,12.30
2018-05-16T23:06:28.273Z,12.53
2018-05-16T23:09:32.640Z,12.00
2018-05-16T23:12:35.089Z,12.33
2018-05-16T23:15:37.547Z,12.13
2018-05-16T23:18:40.395Z,12.23
2018-05-16T23:21:43.611Z,12.80
2018-05-16T23:24:46.061Z,12.40
2018-05-16T23:27:49.301Z,13.00
2018-05-16T23:30:51.822Z,12.37
2018-05-16T23:33:54.209Z,12.40
2018-05-16T23:36:57.438Z,12.33
2018-05-16T23:39:59.899Z,12.07
2018-05-16T23:43:02.347Z,13.70
2018-05-16T23:46:05.570Z,11.77
2018-05-16T23:49:08.019Z,12.13
2018-05-16T23:52:11.241Z,11.77
2018-05-16T23:55:13.706Z,12.37
2018-05-16T23:58:16.917Z,11.90
